Time;durP1;ratioP1;P1;durP2;ratioP2;P2;SDS_P1;SDS_P2;PMS_P1;PMS_P2;Temp;Humidity;BMP_temperature;BMP_pressure;BME280_temperature;BME280_humidity;BME280_pressure;Samples;Min_cycle;Max_cycle;Signal;HPM_P1;HPM_P2
2022/05/16 00:01:43;;;;;;;1.70;1.05;;;20.90;83.50;;;;;;5109091;27;47312;-78
2022/05/16 00:04:10;;;;;;;1.70;1.05;;;20.80;83.50;;;;;;5108009;27;45452;-78
2022/05/16 00:06:37;;;;;;;2.83;1.30;;;20.80;82.80;;;;;;5099918;27;45248;-78
2022/05/16 00:09:04;;;;;;;0.95;0.73;;;20.90;82.60;;;;;;5106173;27;45399;-78
2022/05/16 00:11:31;;;;;;;1.48;1.00;;;20.80;82.40;;;;;;5105880;27;47246;-79
2022/05/16 00:13:58;;;;;;;1.40;1.10;;;20.90;82.20;;;;;;5106164;27;45705;-78
2022/05/16 00:16:27;;;;;;;1.63;0.90;;;20.80;81.90;;;;;;5107420;27;46892;-78
2022/05/16 00:18:53;;;;;;;1.63;1.02;;;20.80;81.90;;;;;;5107696;27;45339;-78
2022/05/16 00:21:21;;;;;;;1.63;1.00;;;20.90;81.70;;;;;;5106259;27;45492;-79
2022/05/16 00:23:48;;;;;;;0.82;0.82;;;20.80;81.70;;;;;;5098147;27;45317;-79
2022/05/16 00:26:15;;;;;;;2.67;1.02;;;20.80;81.60;;;;;;5108025;27;45325;-78
2022/05/16 00:28:41;;;;;;;1.42;1.00;;;20.80;81.30;;;;;;5104224;27;45291;-78
2022/05/16 00:31:08;;;;;;;1.48;1.10;;;20.80;81.50;;;;;;5104976;27;45594;-78
2022/05/16 00:33:37;;;;;;;1.73;1.05;;;20.80;81.40;;;;;;5104165;27;45341;-78
2022/05/16 00:36:04;;;;;;;1.27;1.00;;;20.80;81.50;;;;;;5104956;27;45241;-78
2022/05/16 00:38:31;;;;;;;1.20;0.95;;;20.80;81.90;;;;;;5106593;27;45404;-78
2022/05/16 00:41:01;;;;;;;1.67;1.15;;;20.80;81.90;;;;;;5107790;27;46604;-78
2022/05/16 00:43:44;;;;;;;1.00;0.82;;;20.80;81.60;;;;;;5103996;27;45329;-78
2022/05/16 00:46:11;;;;;;;1.85;1.10;;;20.80;82.00;;;;;;5106808;27;45093;-78
2022/05/16 00:48:40;;;;;;;1.05;0.90;;;20.90;82.00;;;;;;5106687;27;45269;-79
2022/05/16 00:51:10;;;;;;;1.42;0.98;;;20.90;81.80;;;;;;5108041;27;45304;-78
2022/05/16 00:53:36;;;;;;;1.23;1.08;;;20.90;81.90;;;;;;5106415;27;45221;-78
2022/05/16 00:56:03;;;;;;;1.40;1.08;;;20.90;81.90;;;;;;5105005;27;45230;-78
2022/05/16 00:58:30;;;;;;;1.73;1.00;;;20.90;81.30;;;;;;5101104;27;45255;-78
2022/05/16 01:00:57;;;;;;;1.92;1.10;;;20.90;81.70;;;;;;5105112;27;46644;-78
2022/05/16 01:06:10;;;;;;;1.42;1.08;;;20.90;82.90;;;;;;5108937;27;45182;-78
2022/05/16 01:08:43;;;;;;;1.75;1.15;;;20.80;83.40;;;;;;5104434;27;45290;-78
2022/05/16 01:11:14;;;;;;;1.92;1.00;;;20.80;83.60;;;;;;5107680;27;48062;-78
2022/05/16 01:13:41;;;;;;;1.52;0.88;;;20.80;83.90;;;;;;5100188;27;45362;-79
2022/05/16 01:16:08;;;;;;;1.13;0.88;;;20.80;83.70;;;;;;5104008;27;45268;-78
2022/05/16 01:18:35;;;;;;;0.90;0.90;;;20.80;83.80;;;;;;5104338;27;45543;-78
2022/05/16 01:21:18;;;;;;;2.28;1.15;;;20.80;84.70;;;;;;5107233;27;46712;-78
2022/05/16 01:23:50;;;;;;;1.65;1.08;;;20.80;84.00;;;;;;5098942;27;45353;-78
2022/05/16 01:26:19;;;;;;;1.20;1.10;;;20.80;84.10;;;;;;5106364;27;45308;-78
2022/05/16 01:28:46;;;;;;;0.80;0.80;;;20.80;83.80;;;;;;5099890;27;45305;-78
2022/05/16 01:31:13;;;;;;;1.38;1.08;;;20.80;83.80;;;;;;5101955;27;46311;-78
2022/05/16 01:33:40;;;;;;;1.17;1.00;;;20.70;83.80;;;;;;5104892;27;45390;-78
2022/05/16 01:36:07;;;;;;;1.40;1.00;;;20.80;84.90;;;;;;5107221;27;45250;-78
2022/05/16 01:38:34;;;;;;;2.38;0.90;;;20.70;84.30;;;;;;5106568;27;45433;-78
2022/05/16 01:41:05;;;;;;;1.05;0.95;;;20.80;84.30;;;;;;5102301;27;45248;-78
2022/05/16 01:43:35;;;;;;;1.75;1.05;;;20.80;84.20;;;;;;5105952;27;45328;-78
2022/05/16 01:46:02;;;;;;;1.35;1.00;;;20.80;83.80;;;;;;5106952;27;45318;-78
2022/05/16 01:48:30;;;;;;;1.73;0.90;;;20.80;83.90;;;;;;5098802;27;45641;-78
2022/05/16 01:50:59;;;;;;;1.50;0.95;;;20.80;83.90;;;;;;5104118;27;48176;-78
2022/05/16 01:53:26;;;;;;;0.80;0.70;;;20.80;83.70;;;;;;5107061;27;45228;-78
2022/05/16 01:55:53;;;;;;;1.40;0.77;;;20.80;83.60;;;;;;5108456;27;45231;-78
2022/05/16 01:58:21;;;;;;;0.90;0.80;;;20.80;83.60;;;;;;5109604;27;45238;-78
2022/05/16 02:00:49;;;;;;;1.20;1.00;;;20.80;83.50;;;;;;5110111;27;47439;-78
2022/05/16 02:03:16;;;;;;;1.13;0.88;;;20.80;83.40;;;;;;5108619;27;45494;-78
2022/05/16 02:05:44;;;;;;;1.20;0.90;;;20.80;83.40;;;;;;5103343;27;45464;-79
2022/05/16 02:08:11;;;;;;;2.42;0.95;;;20.80;83.30;;;;;;5126265;27;45368;-78
2022/05/16 02:10:38;;;;;;;0.95;0.85;;;20.70;83.00;;;;;;5106797;27;46413;-78
2022/05/16 02:13:06;;;;;;;1.42;1.13;;;20.70;82.50;;;;;;5109637;27;45305;-78
2022/05/16 02:15:36;;;;;;;2.70;1.05;;;20.70;82.60;;;;;;5108981;27;45203;-78
2022/05/16 02:18:04;;;;;;;1.25;0.90;;;20.70;83.60;;;;;;5109930;27;45310;-78
2022/05/16 02:20:30;;;;;;;1.35;0.95;;;20.70;82.40;;;;;;5107896;27;46262;-78
2022/05/16 02:25:44;;;;;;;1.73;1.20;;;20.70;82.20;;;;;;5108662;27;45206;-78
2022/05/16 02:28:14;;;;;;;0.88;0.85;;;20.70;82.20;;;;;;5107630;27;45407;-78
2022/05/16 02:30:42;;;;;;;1.23;0.95;;;20.70;82.00;;;;;;5109502;27;46461;-78
2022/05/16 02:33:09;;;;;;;1.05;0.80;;;20.70;82.10;;;;;;5106995;27;45370;-78
2022/05/16 02:35:36;;;;;;;1.50;0.98;;;20.70;82.00;;;;;;5104988;27;45486;-78
2022/05/16 02:38:05;;;;;;;1.38;0.90;;;20.70;82.50;;;;;;5108352;27;45284;-78
2022/05/16 02:40:33;;;;;;;1.10;0.95;;;20.70;82.40;;;;;;5107088;27;46291;-78
2022/05/16 02:43:00;;;;;;;1.70;1.15;;;20.70;82.10;;;;;;5105080;27;45663;-78
2022/05/16 02:45:29;;;;;;;0.70;0.65;;;20.70;82.10;;;;;;5108715;27;45215;-78
2022/05/16 02:47:57;;;;;;;1.63;1.10;;;20.70;81.90;;;;;;5108392;27;45382;-78
2022/05/16 02:50:25;;;;;;;1.88;1.00;;;20.70;81.90;;;;;;5107087;27;45474;-78
2022/05/16 02:52:52;;;;;;;1.52;1.33;;;20.70;81.80;;;;;;5104894;27;45297;-78
2022/05/16 02:55:19;;;;;;;0.98;0.85;;;20.70;81.70;;;;;;5105668;27;45129;-78
2022/05/16 02:57:46;;;;;;;1.35;1.05;;;20.70;81.60;;;;;;5105964;27;45188;-78
2022/05/16 03:00:16;;;;;;;1.17;0.90;;;20.70;82.50;;;;;;5101511;27;45351;-77
2022/05/16 03:02:43;;;;;;;1.67;0.98;;;20.70;81.40;;;;;;5106360;27;45220;-78
2022/05/16 03:05:12;;;;;;;2.47;0.95;;;20.70;81.30;;;;;;5108578;27;45260;-78
2022/05/16 03:07:39;;;;;;;1.50;1.20;;;20.70;81.20;;;;;;5108348;27;45472;-79
2022/05/16 03:10:07;;;;;;;1.63;1.13;;;20.70;81.20;;;;;;5107170;27;46328;-78
2022/05/16 03:12:35;;;;;;;1.33;0.90;;;20.70;81.20;;;;;;5108353;27;45168;-79
2022/05/16 03:15:01;;;;;;;1.17;0.95;;;20.70;81.00;;;;;;5108164;27;45303;-78
2022/05/16 03:17:28;;;;;;;1.67;1.02;;;20.70;81.00;;;;;;5107281;27;45258;-78
2022/05/16 03:19:55;;;;;;;1.90;0.90;;;20.70;81.10;;;;;;5107816;27;45381;-78
2022/05/16 03:22:24;;;;;;;1.73;0.93;;;20.70;81.20;;;;;;5105431;27;45248;-78
2022/05/16 03:24:51;;;;;;;2.03;1.02;;;20.70;80.90;;;;;;5106616;27;45357;-78
2022/05/16 03:27:17;;;;;;;1.85;1.00;;;20.70;80.80;;;;;;5108240;27;45603;-78
2022/05/16 03:29:46;;;;;;;2.00;0.98;;;20.70;80.70;;;;;;5099417;27;45630;-78
2022/05/16 03:32:13;;;;;;;1.15;0.95;;;20.70;80.60;;;;;;5105240;27;45203;-78
2022/05/16 03:34:40;;;;;;;1.45;1.10;;;20.70;80.50;;;;;;5107891;27;45188;-78
2022/05/16 03:37:07;;;;;;;1.50;1.00;;;20.70;80.50;;;;;;5109079;27;45122;-79
2022/05/16 03:42:20;;;;;;;1.88;1.20;;;20.70;81.00;;;;;;5107815;27;45381;-78
2022/05/16 03:44:47;;;;;;;1.55;0.88;;;20.70;80.70;;;;;;5109310;27;45245;-79
2022/05/16 03:47:14;;;;;;;1.10;0.80;;;20.70;80.50;;;;;;5106829;27;45551;-79
2022/05/16 03:49:41;;;;;;;2.85;1.10;;;20.70;80.40;;;;;;5104286;27;45758;-79
2022/05/16 03:52:08;;;;;;;1.48;1.05;;;20.70;80.30;;;;;;5102903;27;45250;-78
2022/05/16 03:54:36;;;;;;;1.33;0.90;;;20.70;80.10;;;;;;5105873;27;45185;-78
2022/05/16 03:57:03;;;;;;;1.52;1.00;;;20.70;80.10;;;;;;5104941;27;45443;-79
2022/05/16 03:59:30;;;;;;;2.22;1.20;;;20.70;80.10;;;;;;5106819;27;46866;-78
2022/05/16 04:01:58;;;;;;;1.15;0.85;;;20.70;80.00;;;;;;5104223;27;45227;-79
2022/05/16 04:04:25;;;;;;;1.52;1.00;;;20.70;79.90;;;;;;5106474;27;46590;-79
2022/05/16 04:06:52;;;;;;;2.17;0.90;;;20.70;79.80;;;;;;5107376;27;45328;-78
2022/05/16 04:09:18;;;;;;;1.73;1.10;;;20.70;79.80;;;;;;5113698;27;47548;-78
2022/05/16 04:11:47;;;;;;;1.27;0.90;;;20.70;79.60;;;;;;5109824;27;45260;-78
2022/05/16 04:14:14;;;;;;;1.60;1.15;;;20.70;79.40;;;;;;5108454;27;45282;-79
2022/05/16 04:16:41;;;;;;;1.70;0.98;;;20.70;79.40;;;;;;5108309;27;45475;-79
2022/05/16 04:19:08;;;;;;;2.03;1.10;;;20.70;79.40;;;;;;5105466;27;46705;-78
2022/05/16 04:21:35;;;;;;;1.85;1.20;;;20.70;79.60;;;;;;5106808;27;45210;-79
2022/05/16 04:24:04;;;;;;;1.75;1.00;;;20.70;79.60;;;;;;5107815;27;45184;-78
2022/05/16 04:26:31;;;;;;;2.00;1.08;;;20.70;79.70;;;;;;5105154;27;45741;-78
2022/05/16 04:29:00;;;;;;;2.78;1.10;;;20.70;79.30;;;;;;5104238;27;46599;-78
2022/05/16 04:31:26;;;;;;;1.33;1.05;;;20.70;79.30;;;;;;5106681;27;45218;-79
2022/05/16 04:33:53;;;;;;;1.48;1.00;;;20.70;79.90;;;;;;5106718;27;45148;-79
2022/05/16 04:36:20;;;;;;;1.23;0.93;;;20.70;78.90;;;;;;5095713;27;45489;-79
2022/05/16 04:38:47;;;;;;;1.90;1.08;;;20.70;78.40;;;;;;5098817;27;47231;-79
2022/05/16 04:44:14;;;;;;;1.35;0.85;;;20.70;78.20;;;;;;5031563;28;45444;-79
2022/05/16 04:46:41;;;;;;;2.22;1.20;;;20.70;77.40;;;;;;5034313;28;45480;-79
2022/05/16 04:49:08;;;;;;;1.75;1.10;;;20.70;77.20;;;;;;5064374;27;46262;-79
2022/05/16 04:51:34;;;;;;;2.03;1.25;;;20.70;77.10;;;;;;5103271;27;45308;-78
2022/05/16 04:54:01;;;;;;;2.65;1.15;;;20.70;77.10;;;;;;5104537;27;45386;-78
2022/05/16 04:56:28;;;;;;;2.25;1.23;;;20.80;77.50;;;;;;5103606;27;46329;-79
2022/05/16 04:58:55;;;;;;;1.70;1.27;;;20.70;77.70;;;;;;5109195;27;46172;-79
2022/05/16 05:01:24;;;;;;;2.65;1.23;;;20.80;78.40;;;;;;5100615;27;45267;-79
2022/05/16 05:03:51;;;;;;;2.60;1.00;;;20.80;78.80;;;;;;5106893;27;45318;-79
2022/05/16 05:06:18;;;;;;;2.55;1.08;;;20.80;78.90;;;;;;5107861;27;45556;-78
2022/05/16 05:08:45;;;;;;;1.10;1.00;;;20.80;78.90;;;;;;5104249;27;45493;-79
2022/05/16 05:16:41;;;;;;;2.13;1.00;;;20.80;78.90;;;;;;5102753;27;46473;-79
2022/05/16 05:19:08;;;;;;;2.50;0.98;;;20.70;78.80;;;;;;5104065;27;47406;-77
2022/05/16 05:21:35;;;;;;;1.70;1.10;;;20.80;78.60;;;;;;5099126;27;45286;-79
2022/05/16 05:24:02;;;;;;;2.58;1.30;;;20.80;79.70;;;;;;5105876;27;45260;-79
2022/05/16 05:26:29;;;;;;;2.92;1.33;;;20.80;78.60;;;;;;5104838;27;45388;-78
2022/05/16 05:28:56;;;;;;;1.27;1.05;;;20.80;78.30;;;;;;5098543;27;48048;-79
2022/05/16 05:31:25;;;;;;;2.80;1.40;;;20.80;78.40;;;;;;5104611;27;46015;-79
2022/05/16 05:33:54;;;;;;;2.13;1.05;;;20.80;78.20;;;;;;5105329;27;45474;-79
2022/05/16 05:36:21;;;;;;;3.38;1.08;;;20.80;78.10;;;;;;5105522;27;45365;-78
2022/05/16 05:38:51;;;;;;;2.83;1.20;;;20.80;78.90;;;;;;5107855;27;48282;-79
2022/05/16 05:41:19;;;;;;;6.35;1.60;;;20.80;78.90;;;;;;5108112;27;45108;-78
2022/05/16 05:43:46;;;;;;;4.55;1.65;;;20.80;78.90;;;;;;5108442;27;45140;-79
2022/05/16 05:46:13;;;;;;;7.07;1.35;;;20.80;80.00;;;;;;5101826;27;45371;-79
2022/05/16 05:48:40;;;;;;;7.78;1.48;;;20.80;78.90;;;;;;5105691;27;46620;-78
2022/05/16 05:51:09;;;;;;;2.38;1.20;;;20.80;79.10;;;;;;5108615;27;45278;-78
2022/05/16 05:53:37;;;;;;;3.97;1.00;;;20.80;78.90;;;;;;5109094;27;46736;-79
2022/05/16 05:56:05;;;;;;;2.13;1.20;;;20.80;79.00;;;;;;5107219;27;45175;-78
2022/05/16 05:58:33;;;;;;;3.35;1.40;;;20.80;79.10;;;;;;5108279;27;47945;-78
2022/05/16 06:01:00;;;;;;;3.80;1.10;;;20.80;79.30;;;;;;5103829;27;45311;-79
2022/05/16 06:03:27;;;;;;;3.00;1.13;;;20.80;79.20;;;;;;5109891;27;45184;-79
2022/05/16 06:05:54;;;;;;;3.25;1.35;;;20.80;79.30;;;;;;5107774;27;45228;-79
2022/05/16 06:08:23;;;;;;;2.45;1.20;;;20.80;79.20;;;;;;5109912;27;45889;-79
2022/05/16 06:10:50;;;;;;;1.80;1.10;;;20.80;79.30;;;;;;5108629;27;45679;-79
2022/05/16 06:13:17;;;;;;;1.83;1.30;;;20.80;79.20;;;;;;5114890;27;45336;-79
2022/05/16 06:15:44;;;;;;;2.88;1.13;;;20.80;79.10;;;;;;5110464;27;45585;-79
2022/05/16 06:18:11;;;;;;;4.97;1.70;;;20.80;79.20;;;;;;5110895;27;45181;-79
2022/05/16 06:20:38;;;;;;;2.08;1.38;;;20.80;79.40;;;;;;5109088;27;45186;-79
2022/05/16 06:23:05;;;;;;;4.45;1.30;;;20.80;79.30;;;;;;5104792;27;45304;-79
2022/05/16 06:25:34;;;;;;;2.97;1.00;;;20.80;79.40;;;;;;5107349;27;45378;-79
2022/05/16 06:28:04;;;;;;;3.05;1.10;;;20.80;79.40;;;;;;5108182;27;47438;-79
2022/05/16 06:30:31;;;;;;;2.10;1.27;;;20.80;79.40;;;;;;5106707;27;45176;-79
2022/05/16 06:32:58;;;;;;;1.52;1.10;;;20.80;79.60;;;;;;5108959;27;45338;-79
2022/05/16 06:35:25;;;;;;;2.30;1.25;;;20.80;79.60;;;;;;5109982;27;45133;-79
2022/05/16 06:37:52;;;;;;;2.90;1.15;;;20.80;79.60;;;;;;5108084;27;46091;-79
2022/05/16 06:40:20;;;;;;;2.28;1.05;;;20.80;79.60;;;;;;5107159;27;45289;-79
2022/05/16 06:42:49;;;;;;;1.80;1.20;;;20.80;79.70;;;;;;5090555;27;45215;-79
2022/05/16 06:45:18;;;;;;;1.23;0.98;;;20.80;79.90;;;;;;5111140;27;45105;-79
2022/05/16 06:47:45;;;;;;;2.38;1.20;;;20.80;80.10;;;;;;5110161;27;45972;-79
2022/05/16 06:50:13;;;;;;;2.03;1.00;;;20.80;80.10;;;;;;5107774;27;45337;-79
2022/05/16 06:52:40;;;;;;;1.73;1.20;;;20.80;80.00;;;;;;5119160;27;45247;-79
2022/05/16 06:55:07;;;;;;;2.38;1.23;;;20.80;80.00;;;;;;5107271;27;45158;-79
2022/05/16 06:57:34;;;;;;;1.20;1.05;;;20.80;80.00;;;;;;5109318;27;47020;-79
2022/05/16 07:00:04;;;;;;;2.03;1.13;;;20.80;80.20;;;;;;5108431;27;45263;-79
2022/05/16 07:02:32;;;;;;;2.45;1.30;;;20.80;80.00;;;;;;5110030;27;45166;-79
2022/05/16 07:04:59;;;;;;;1.95;1.10;;;20.80;80.20;;;;;;5110021;27;45307;-78
2022/05/16 07:07:27;;;;;;;2.40;1.10;;;20.80;80.30;;;;;;5104754;27;47081;-79
2022/05/16 07:09:54;;;;;;;1.88;1.10;;;20.80;80.30;;;;;;5109353;27;45220;-79
2022/05/16 07:12:21;;;;;;;2.65;1.30;;;20.80;80.30;;;;;;5110482;27;45210;-79
2022/05/16 07:14:48;;;;;;;1.48;1.10;;;20.80;80.40;;;;;;5106072;27;46668;-79
2022/05/16 07:17:17;;;;;;;1.88;1.15;;;20.80;80.30;;;;;;5106908;27;47063;-79
2022/05/16 07:19:46;;;;;;;2.35;1.25;;;20.80;80.50;;;;;;5107620;27;46661;-79
2022/05/16 07:22:15;;;;;;;2.40;1.20;;;20.80;80.60;;;;;;5109842;27;45290;-79
2022/05/16 07:24:43;;;;;;;2.90;1.02;;;20.80;80.70;;;;;;5108141;27;45372;-79
2022/05/16 07:29:55;;;;;;;2.03;1.20;;;20.80;81.00;;;;;;5107858;27;45296;-80
2022/05/16 07:32:23;;;;;;;2.50;1.20;;;20.80;81.10;;;;;;5105515;27;45247;-79
2022/05/16 07:34:50;;;;;;;2.25;1.10;;;20.70;81.30;;;;;;5103469;27;45638;-78
2022/05/16 07:37:17;;;;;;;1.20;1.10;;;20.70;81.40;;;;;;5102950;27;45210;-79
2022/05/16 07:39:44;;;;;;;3.75;1.50;;;20.70;81.50;;;;;;5105967;27;45332;-79
2022/05/16 07:42:11;;;;;;;2.45;1.25;;;20.70;81.50;;;;;;5105229;27;45216;-79
2022/05/16 07:44:40;;;;;;;2.67;1.25;;;20.70;81.80;;;;;;5107764;27;45377;-79
2022/05/16 07:47:07;;;;;;;1.65;1.15;;;20.70;81.90;;;;;;5104628;27;46258;-78
2022/05/16 07:49:35;;;;;;;1.95;1.38;;;20.70;82.20;;;;;;5105764;27;45203;-79
2022/05/16 07:52:03;;;;;;;2.40;1.45;;;20.70;82.20;;;;;;5108121;27;45199;-78
2022/05/16 07:54:30;;;;;;;2.78;1.40;;;20.70;82.10;;;;;;5100735;27;45390;-79
2022/05/16 07:56:56;;;;;;;2.13;1.25;;;20.80;82.30;;;;;;5107137;27;45949;-79
2022/05/16 07:59:23;;;;;;;2.22;1.30;;;20.80;82.40;;;;;;5107977;27;45222;-79
2022/05/16 08:01:51;;;;;;;1.65;0.98;;;20.80;82.50;;;;;;5107216;27;45463;-79
2022/05/16 08:04:20;;;;;;;2.50;1.50;;;20.80;82.40;;;;;;5109165;27;45081;-79
2022/05/16 08:06:48;;;;;;;2.28;1.30;;;20.80;82.60;;;;;;5102478;27;47511;-79
2022/05/16 08:12:00;;;;;;;3.03;1.38;;;20.80;82.60;;;;;;5104467;27;45438;-79
2022/05/16 08:14:27;;;;;;;2.20;1.20;;;20.80;82.80;;;;;;5112141;27;45237;-78
2022/05/16 08:16:54;;;;;;;2.10;1.10;;;20.80;82.60;;;;;;5106834;27;47068;-79
2022/05/16 08:19:20;;;;;;;1.83;1.30;;;20.80;82.90;;;;;;5103434;27;45159;-78
2022/05/16 08:21:49;;;;;;;2.30;1.50;;;20.80;82.90;;;;;;5098615;27;45200;-79
2022/05/16 08:24:16;;;;;;;2.53;1.40;;;20.90;83.10;;;;;;5102991;27;45613;-79
2022/05/16 08:26:43;;;;;;;3.30;1.20;;;20.80;82.90;;;;;;5106021;27;46609;-79
2022/05/16 08:29:10;;;;;;;1.85;1.40;;;20.70;83.10;;;;;;5106751;27;45236;-79
2022/05/16 08:31:36;;;;;;;1.90;1.20;;;20.70;83.10;;;;;;5106572;27;45217;-78
2022/05/16 08:34:03;;;;;;;1.92;1.30;;;20.70;83.10;;;;;;5105995;27;45267;-78
2022/05/16 08:42:05;;;;;;;3.13;1.48;;;20.70;83.30;;;;;;5104843;27;45547;-79
2022/05/16 08:44:39;;;;;;;2.40;1.25;;;20.70;83.50;;;;;;5106912;27;45272;-79
2022/05/16 08:47:22;;;;;;;3.22;1.40;;;20.70;83.60;;;;;;5102563;27;46179;-79
2022/05/16 08:49:54;;;;;;;3.30;1.40;;;20.80;83.80;;;;;;5104758;27;45158;-79
2022/05/16 08:52:32;;;;;;;3.22;1.45;;;20.80;83.70;;;;;;5103001;27;45203;-80
2022/05/16 08:55:05;;;;;;;2.03;1.30;;;20.80;83.80;;;;;;5104462;27;45313;-79
2022/05/16 08:57:36;;;;;;;3.10;1.30;;;20.80;83.80;;;;;;5109229;27;46264;-79
2022/05/16 09:00:09;;;;;;;3.30;1.25;;;20.80;83.70;;;;;;5102462;27;45287;-79
2022/05/16 09:02:38;;;;;;;2.47;1.45;;;20.80;83.70;;;;;;5104879;27;45268;-79
2022/05/16 09:05:13;;;;;;;2.60;1.48;;;20.80;83.90;;;;;;5108823;27;45357;-79
2022/05/16 09:07:45;;;;;;;4.15;1.38;;;20.80;83.80;;;;;;5095893;27;46423;-79
2022/05/16 09:10:16;;;;;;;2.45;1.42;;;20.80;83.80;;;;;;5096759;27;45649;-79
2022/05/16 09:12:51;;;;;;;1.55;1.23;;;20.80;83.80;;;;;;5111706;27;45129;-79
2022/05/16 09:15:27;;;;;;;2.53;1.20;;;20.80;83.70;;;;;;5106909;27;45696;-79
2022/05/16 09:18:10;;;;;;;3.60;1.55;;;20.80;83.90;;;;;;5099660;27;46268;-79
2022/05/16 09:20:47;;;;;;;1.40;1.15;;;20.80;84.00;;;;;;5100280;27;45254;-79
2022/05/16 09:23:30;;;;;;;2.80;1.30;;;20.80;84.10;;;;;;5107239;27;45267;-79
2022/05/16 09:26:08;;;;;;;2.05;1.52;;;20.90;84.20;;;;;;5105851;27;45526;-78
2022/05/16 09:28:40;;;;;;;1.75;1.35;;;20.90;84.30;;;;;;5103156;27;48389;-79
2022/05/16 09:31:14;;;;;;;2.30;1.38;;;20.90;84.30;;;;;;5104981;27;45610;-79
2022/05/16 09:33:45;;;;;;;1.83;1.13;;;20.90;84.50;;;;;;5104975;27;45302;-79
2022/05/16 09:36:14;;;;;;;1.75;1.25;;;20.90;84.40;;;;;;5105376;27;45463;-79
2022/05/16 09:38:45;;;;;;;3.08;1.30;;;20.90;84.50;;;;;;5112586;27;46213;-78
2022/05/16 09:41:20;;;;;;;2.05;1.40;;;20.90;84.30;;;;;;5106473;27;46532;-79
2022/05/16 09:43:56;;;;;;;1.45;1.20;;;20.90;84.60;;;;;;5106867;27;45330;-78
2022/05/16 09:46:32;;;;;;;1.80;1.40;;;20.90;84.70;;;;;;5104041;27;45482;-79
2022/05/16 09:49:11;;;;;;;2.15;1.58;;;20.90;84.80;;;;;;5102609;27;45314;-78
2022/05/16 09:51:43;;;;;;;2.42;1.40;;;20.90;84.70;;;;;;5098396;27;45345;-79
2022/05/16 09:54:14;;;;;;;2.15;1.23;;;20.80;84.40;;;;;;5105602;27;45235;-79
2022/05/16 09:57:04;;;;;;;1.52;1.10;;;20.90;84.40;;;;;;5101283;27;45446;-79
2022/05/16 09:59:42;;;;;;;1.90;1.10;;;20.90;84.00;;;;;;5096879;27;46387;-79
2022/05/16 10:02:23;;;;;;;2.47;1.20;;;21.10;84.40;;;;;;5101477;27;45488;-79
2022/05/16 10:04:55;;;;;;;1.52;1.10;;;20.90;84.20;;;;;;5104344;27;45214;-78
2022/05/16 10:07:43;;;;;;;1.60;1.20;;;20.90;84.20;;;;;;5097823;27;45302;-79
2022/05/16 10:10:14;;;;;;;1.65;1.23;;;20.90;84.20;;;;;;5104968;27;48493;-79
2022/05/16 10:12:42;;;;;;;3.10;1.30;;;20.90;84.20;;;;;;5103790;27;45167;-79
2022/05/16 10:15:11;;;;;;;2.03;1.50;;;20.90;84.20;;;;;;5101122;27;45388;-79
2022/05/16 10:17:40;;;;;;;2.35;1.50;;;20.90;84.20;;;;;;5104862;27;45483;-79
2022/05/16 10:20:14;;;;;;;1.25;1.00;;;20.90;84.20;;;;;;5107719;27;45422;-78
2022/05/16 10:22:42;;;;;;;1.40;1.13;;;20.90;84.10;;;;;;5105535;27;45304;-79
2022/05/16 10:25:14;;;;;;;1.83;1.30;;;20.90;84.20;;;;;;5102908;27;45366;-78
2022/05/16 10:27:45;;;;;;;1.25;1.02;;;20.90;84.20;;;;;;5108609;27;45177;-79
2022/05/16 10:30:20;;;;;;;1.77;1.20;;;20.90;84.10;;;;;;5105639;27;46254;-79
2022/05/16 10:35:38;;;;;;;3.08;1.30;;;20.90;84.20;;;;;;5103731;27;45385;-79
2022/05/16 10:38:12;;;;;;;2.03;1.20;;;20.90;84.30;;;;;;5104670;27;45442;-79
2022/05/16 10:40:42;;;;;;;1.73;1.30;;;20.90;84.20;;;;;;5103620;27;47383;-79
2022/05/16 10:43:23;;;;;;;1.95;1.27;;;20.90;84.30;;;;;;5106992;27;45897;-79
2022/05/16 10:45:54;;;;;;;1.42;1.02;;;20.90;84.50;;;;;;5105691;27;45315;-78
2022/05/16 10:48:29;;;;;;;1.27;1.17;;;20.90;84.70;;;;;;5105895;27;45198;-79
2022/05/16 10:51:01;;;;;;;2.05;1.13;;;20.90;84.70;;;;;;5106053;27;46219;-79
2022/05/16 10:53:33;;;;;;;1.13;1.02;;;20.90;85.10;;;;;;5109274;27;45282;-79
2022/05/16 10:56:04;;;;;;;2.65;1.20;;;20.90;85.30;;;;;;5106767;27;45376;-79
2022/05/16 10:58:45;;;;;;;0.98;0.88;;;21.00;85.40;;;;;;5108005;27;45199;-79
2022/05/16 11:01:17;;;;;;;2.15;1.40;;;21.00;85.60;;;;;;5108755;27;46530;-78
2022/05/16 11:04:02;;;;;;;1.63;1.20;;;21.00;85.50;;;;;;5109368;27;46316;-78
2022/05/16 11:06:57;;;;;;;1.90;1.33;;;21.00;85.90;;;;;;5104913;27;45495;-79
2022/05/16 11:09:34;;;;;;;2.42;1.30;;;21.10;86.10;;;;;;5094571;27;45362;-78
2022/05/16 11:12:08;;;;;;;2.80;1.33;;;21.10;86.10;;;;;;5110225;27;46186;-78
2022/05/16 11:14:46;;;;;;;1.63;1.17;;;21.10;86.40;;;;;;5107745;27;45352;-78
2022/05/16 11:17:28;;;;;;;1.95;1.30;;;21.10;86.10;;;;;;5103552;27;45357;-79
2022/05/16 11:20:06;;;;;;;2.08;1.00;;;21.10;86.40;;;;;;5107392;27;45485;-79
2022/05/16 11:22:36;;;;;;;1.75;1.15;;;21.10;86.20;;;;;;5108553;27;46190;-79
2022/05/16 11:25:09;;;;;;;2.03;1.20;;;21.10;86.00;;;;;;5108073;27;45216;-78
2022/05/16 11:27:50;;;;;;;2.80;1.35;;;21.10;86.20;;;;;;5100756;27;45233;-79
2022/05/16 11:30:35;;;;;;;1.05;0.93;;;21.10;86.20;;;;;;5102699;27;45996;-79
2022/05/16 11:33:09;;;;;;;2.53;1.40;;;21.10;86.50;;;;;;5109791;27;45476;-78
2022/05/16 11:35:42;;;;;;;1.75;1.15;;;21.10;86.50;;;;;;5106223;27;45280;-78
2022/05/16 11:38:26;;;;;;;1.85;1.20;;;21.10;86.80;;;;;;5101950;27;46339;-79
2022/05/16 11:41:02;;;;;;;1.65;1.13;;;21.10;86.90;;;;;;5102224;27;45248;-78
2022/05/16 11:43:32;;;;;;;2.00;1.40;;;21.10;86.80;;;;;;5102196;27;45336;-78
2022/05/16 11:46:22;;;;;;;2.65;1.50;;;21.10;86.70;;;;;;5103658;27;45337;-78
2022/05/16 11:49:09;;;;;;;2.33;1.20;;;21.10;86.70;;;;;;5099932;27;45248;-79
2022/05/16 11:51:55;;;;;;;3.17;1.20;;;21.10;86.60;;;;;;5105841;27;45425;-78
2022/05/16 11:54:27;;;;;;;2.85;1.33;;;21.10;86.60;;;;;;5099820;27;45302;-80
2022/05/16 12:02:53;;;;;;;1.65;1.30;;;21.10;86.80;;;;;;5105523;27;45207;-79
2022/05/16 12:05:40;;;;;;;1.50;1.38;;;21.10;86.70;;;;;;5106805;27;45363;-79
2022/05/16 12:08:31;;;;;;;3.17;1.45;;;21.10;86.80;;;;;;5107893;27;45327;-79
2022/05/16 12:11:09;;;;;;;2.15;1.25;;;21.10;87.00;;;;;;5107643;27;45179;-79
2022/05/16 12:13:39;;;;;;;2.65;1.55;;;21.10;86.90;;;;;;5106584;27;45490;-78
2022/05/16 12:16:18;;;;;;;1.88;1.40;;;21.10;87.00;;;;;;5106008;27;46459;-79
2022/05/16 12:18:48;;;;;;;1.98;1.30;;;21.10;87.30;;;;;;5104127;27;45508;-79
2022/05/16 12:21:27;;;;;;;3.10;1.50;;;21.20;87.40;;;;;;5107574;27;45636;-79
2022/05/16 12:24:03;;;;;;;4.30;1.77;;;21.10;87.30;;;;;;5108861;27;45219;-79
2022/05/16 12:27:09;;;;;;;2.03;1.45;;;21.10;87.70;;;;;;5111986;27;48132;-79
2022/05/16 12:29:44;;;;;;;3.05;1.85;;;21.10;88.30;;;;;;5105690;27;45294;-79
2022/05/16 12:32:22;;;;;;;2.78;1.70;;;21.10;88.50;;;;;;5106472;27;45554;-79
2022/05/16 12:34:51;;;;;;;2.58;1.55;;;21.10;88.90;;;;;;5111498;27;45381;-79
2022/05/16 12:37:20;;;;;;;2.40;1.60;;;21.10;89.20;;;;;;5107920;27;46339;-79
2022/05/16 12:39:57;;;;;;;3.30;1.77;;;21.10;89.10;;;;;;5105099;27;45401;-79
2022/05/16 12:42:40;;;;;;;2.75;1.77;;;21.10;89.60;;;;;;5103966;27;45252;-79
2022/05/16 12:45:24;;;;;;;3.90;2.17;;;21.10;89.60;;;;;;5115596;27;45279;-78
2022/05/16 12:48:24;;;;;;;3.00;1.95;;;21.10;89.90;;;;;;5102371;27;47856;-79
2022/05/16 12:51:15;;;;;;;4.03;1.90;;;21.10;89.90;;;;;;5105212;27;45179;-78
2022/05/16 12:54:10;;;;;;;3.45;1.92;;;21.10;90.10;;;;;;5104060;27;45321;-79
2022/05/16 12:56:47;;;;;;;2.33;1.90;;;21.10;90.00;;;;;;5102360;27;45712;-79
2022/05/16 12:59:27;;;;;;;2.80;1.65;;;21.10;90.20;;;;;;5100795;27;45982;-78
2022/05/16 13:02:04;;;;;;;3.33;2.25;;;21.10;89.40;;;;;;5104573;27;45565;-79
2022/05/16 13:04:48;;;;;;;3.40;2.13;;;21.10;89.90;;;;;;5103169;27;45408;-79
2022/05/16 13:07:23;;;;;;;4.13;1.83;;;21.10;89.40;;;;;;5104189;27;45213;-79
2022/05/16 13:10:02;;;;;;;2.85;2.10;;;21.10;89.30;;;;;;5103920;27;46507;-78
2022/05/16 13:12:44;;;;;;;3.05;2.20;;;21.10;89.30;;;;;;5101780;27;45348;-79
2022/05/16 13:15:15;;;;;;;2.30;1.77;;;21.10;89.60;;;;;;5105476;27;45413;-79
2022/05/16 13:17:45;;;;;;;2.42;1.95;;;21.10;89.20;;;;;;5105245;27;45524;-78
2022/05/16 13:20:16;;;;;;;5.25;2.10;;;21.10;89.40;;;;;;5103781;27;45321;-79
2022/05/16 13:22:48;;;;;;;2.08;1.65;;;21.10;89.30;;;;;;5103145;27;45330;-79
2022/05/16 13:25:17;;;;;;;3.85;1.98;;;21.10;89.50;;;;;;5105827;27;45309;-79
2022/05/16 13:30:35;;;;;;;3.70;2.35;;;21.10;89.60;;;;;;5102625;27;45561;-79
2022/05/16 13:33:02;;;;;;;4.18;2.17;;;21.20;89.80;;;;;;5107080;27;45322;-79
2022/05/16 13:35:31;;;;;;;2.28;2.08;;;21.10;89.60;;;;;;5105635;27;45162;-79
2022/05/16 13:37:59;;;;;;;4.03;2.40;;;21.10;89.60;;;;;;5105933;27;45585;-79
2022/05/16 13:40:31;;;;;;;4.45;2.33;;;21.20;89.80;;;;;;5101229;27;47453;-79
2022/05/16 13:42:58;;;;;;;3.15;2.22;;;21.20;89.50;;;;;;5098457;27;45534;-78
2022/05/16 13:45:28;;;;;;;3.45;2.30;;;21.20;90.30;;;;;;5103055;27;45314;-79